createdAt,value
2019-05-07T00:00:53.174Z,6.70
2019-05-07T00:03:22.090Z,6.70
2019-05-07T00:05:53.728Z,6.70
2019-05-07T00:08:22.802Z,6.70
2019-05-07T00:10:52.897Z,6.70
2019-05-07T00:13:44.095Z,6.70
2019-05-07T00:16:12.712Z,6.70
2019-05-07T00:18:42.742Z,6.60
2019-05-07T00:21:12.609Z,6.70
2019-05-07T00:23:43.037Z,6.70
2019-05-07T00:26:13.118Z,6.70
2019-05-07T00:28:43.187Z,6.70
2019-05-07T00:31:12.377Z,6.70
2019-05-07T00:33:43.035Z,6.70
2019-05-07T00:36:29.108Z,6.70
2019-05-07T00:39:08.163Z,6.70
2019-05-07T00:41:42.681Z,6.70
2019-05-07T00:44:13.558Z,6.60
2019-05-07T00:46:42.727Z,6.60
2019-05-07T00:49:12.661Z,6.60
2019-05-07T00:51:42.429Z,6.60
2019-05-07T00:54:12.322Z,6.50
2019-05-07T00:56:42.892Z,6.50
2019-05-07T00:59:13.084Z,6.40
2019-05-07T01:01:43.258Z,6.30
2019-05-07T01:04:12.059Z,6.20
2019-05-07T01:06:42.393Z,6.20
2019-05-07T01:09:12.303Z,6.10
2019-05-07T01:11:42.934Z,6.10
2019-05-07T01:14:32.323Z,6.10
2019-05-07T01:17:02.419Z,6.10
2019-05-07T01:19:32.715Z,6.00
2019-05-07T01:22:03.009Z,6.00
2019-05-07T01:24:32.228Z,6.00
2019-05-07T01:27:02.182Z,5.90
2019-05-07T01:29:32.824Z,5.80
2019-05-07T01:32:05.452Z,5.70
2019-05-07T01:34:35.536Z,5.70
2019-05-07T01:37:03.941Z,5.60
2019-05-07T01:39:32.746Z,5.60
2019-05-07T01:42:02.159Z,5.50
2019-05-07T01:44:32.550Z,5.40
2019-05-07T01:47:02.535Z,5.40
2019-05-07T01:49:33.087Z,5.30
2019-05-07T01:52:02.465Z,5.30
2019-05-07T01:54:33.226Z,5.20
2019-05-07T01:57:02.920Z,5.20
2019-05-07T01:59:32.123Z,5.10
2019-05-07T02:02:02.995Z,5.10
2019-05-07T02:04:38.772Z,5.00
2019-05-07T02:07:23.642Z,5.00
2019-05-07T02:09:53.739Z,4.90
2019-05-07T02:12:23.772Z,4.90
2019-05-07T02:14:53.118Z,4.90
2019-05-07T02:17:22.855Z,4.90
2019-05-07T02:19:52.745Z,4.80
2019-05-07T02:22:22.691Z,4.80
2019-05-07T02:24:52.306Z,4.80
2019-05-07T02:27:22.089Z,4.70
2019-05-07T02:29:52.841Z,4.70
2019-05-07T02:32:23.694Z,4.60
2019-05-07T02:34:54.202Z,4.50
2019-05-07T02:37:26.224Z,4.50
2019-05-07T02:40:00.183Z,4.50
2019-05-07T02:42:29.167Z,4.50
2019-05-07T02:44:59.216Z,4.40
2019-05-07T02:47:29.424Z,4.40
2019-05-07T02:50:02.810Z,4.30
2019-05-07T02:52:47.848Z,4.30
2019-05-07T02:55:17.974Z,4.20
2019-05-07T02:57:46.401Z,4.20
2019-05-07T03:00:19.308Z,4.20
2019-05-07T03:02:46.571Z,4.30
2019-05-07T03:05:14.993Z,4.30
2019-05-07T03:07:43.488Z,4.30
2019-05-07T03:10:13.836Z,4.30
2019-05-07T03:12:42.969Z,4.20
2019-05-07T03:15:13.249Z,4.20
2019-05-07T03:17:42.971Z,4.20
2019-05-07T03:20:13.988Z,4.20
2019-05-07T03:22:42.986Z,4.20
2019-05-07T03:25:16.233Z,4.10
2019-05-07T03:27:44.657Z,4.10
2019-05-07T03:30:17.059Z,4.10
2019-05-07T03:32:48.175Z,4.00
2019-05-07T03:35:27.531Z,4.00
2019-05-07T03:37:54.966Z,4.00
2019-05-07T03:40:23.429Z,3.90
2019-05-07T03:42:53.497Z,3.90
2019-05-07T03:45:29.693Z,3.90
2019-05-07T03:48:05.683Z,3.80
2019-05-07T03:50:34.098Z,3.80
2019-05-07T03:53:02.986Z,3.80
2019-05-07T03:55:33.194Z,3.80
2019-05-07T03:58:03.181Z,3.90
2019-05-07T04:00:33.338Z,3.80
2019-05-07T04:03:03.676Z,3.80
2019-05-07T04:05:34.242Z,3.80
2019-05-07T04:08:03.303Z,3.80
2019-05-07T04:10:33.854Z,3.70
2019-05-07T04:13:04.527Z,3.70
2019-05-07T04:15:33.164Z,3.60
2019-05-07T04:18:03.580Z,3.60
2019-05-07T04:20:33.296Z,3.60
2019-05-07T04:23:04.219Z,3.60
2019-05-07T04:25:36.468Z,3.60
2019-05-07T04:28:23.655Z,3.60
2019-05-07T04:30:53.381Z,3.60
2019-05-07T04:33:23.878Z,3.70
2019-05-07T04:36:13.852Z,3.70
2019-05-07T04:38:43.735Z,3.80
2019-05-07T04:41:13.587Z,3.80
2019-05-07T04:43:43.482Z,3.80
2019-05-07T04:46:14.374Z,3.90
2019-05-07T04:48:43.825Z,4.00
2019-05-07T04:51:13.566Z,4.10
2019-05-07T04:53:42.883Z,4.30
2019-05-07T04:56:14.079Z,4.30
2019-05-07T04:58:43.349Z,4.30
2019-05-07T05:01:14.087Z,4.40
2019-05-07T05:03:43.695Z,4.60
2019-05-07T05:06:13.737Z,4.70
2019-05-07T05:08:43.487Z,4.80
2019-05-07T05:11:12.881Z,5.00
2019-05-07T05:13:44.462Z,5.10
2019-05-07T05:16:13.484Z,5.20
2019-05-07T05:18:42.054Z,5.40
2019-05-07T05:21:12.235Z,5.50
2019-05-07T05:23:42.348Z,5.60
2019-05-07T05:26:12.537Z,5.70
2019-05-07T05:28:41.897Z,5.90
2019-05-07T05:31:12.516Z,5.90
2019-05-07T05:33:41.997Z,6.00
2019-05-07T05:36:12.702Z,6.20
2019-05-07T05:38:42.339Z,6.30
2019-05-07T05:41:12.292Z,6.60
2019-05-07T05:43:58.509Z,7.00
2019-05-07T05:46:28.698Z,7.40
2019-05-07T05:48:57.128Z,7.80
2019-05-07T05:51:33.124Z,8.20
2019-05-07T05:54:05.906Z,8.70
2019-05-07T05:56:52.376Z,9.00
2019-05-07T05:59:27.870Z,9.30
2019-05-07T06:02:12.230Z,9.60
2019-05-07T06:04:48.299Z,9.90
2019-05-07T06:07:36.685Z,10.10
2019-05-07T06:10:08.750Z,10.60
2019-05-07T06:12:42.820Z,10.60
2019-05-07T06:15:28.269Z,10.80
2019-05-07T06:17:58.338Z,11.20
2019-05-07T06:20:42.835Z,11.30
2019-05-07T06:23:32.965Z,11.30
2019-05-07T06:26:05.163Z,11.50
2019-05-07T06:28:32.986Z,11.80
2019-05-07T06:31:02.210Z,11.90
2019-05-07T06:33:32.399Z,12.10
2019-05-07T06:36:02.864Z,12.20
2019-05-07T06:38:32.842Z,12.50
2019-05-07T06:41:19.951Z,12.30
2019-05-07T06:43:52.126Z,12.30
2019-05-07T06:46:23.052Z,12.30
2019-05-07T06:48:52.690Z,12.50
2019-05-07T06:51:22.109Z,12.70
2019-05-07T06:53:51.864Z,13.00
2019-05-07T06:56:20.428Z,13.00
2019-05-07T06:58:52.467Z,13.40
2019-05-07T07:01:28.354Z,13.70
2019-05-07T07:04:07.577Z,13.90
2019-05-07T07:06:49.640Z,14.10
2019-05-07T07:09:32.894Z,14.10
2019-05-07T07:12:05.799Z,13.80
2019-05-07T07:14:34.279Z,13.80
2019-05-07T07:17:02.975Z,14.00
2019-05-07T07:19:32.521Z,13.80
2019-05-07T07:22:02.346Z,14.10
2019-05-07T07:24:32.929Z,14.30
2019-05-07T07:27:02.415Z,14.50
2019-05-07T07:29:32.590Z,14.80
2019-05-07T07:32:05.601Z,14.70
2019-05-07T07:34:35.665Z,14.90
2019-05-07T07:37:09.823Z,15.10
2019-05-07T07:39:35.974Z,15.00
2019-05-07T07:42:06.162Z,15.10
2019-05-07T07:44:34.734Z,14.80
2019-05-07T07:47:03.205Z,14.80
2019-05-07T07:49:32.829Z,14.90
2019-05-07T07:52:03.170Z,15.10
2019-05-07T07:54:32.245Z,14.70
2019-05-07T07:57:08.496Z,14.50
2019-05-07T07:59:38.689Z,14.40
2019-05-07T08:02:08.829Z,14.70
2019-05-07T08:04:37.246Z,15.10
2019-05-07T08:07:05.750Z,15.40
2019-05-07T08:09:34.803Z,15.60
2019-05-07T08:12:05.369Z,15.50
2019-05-07T08:14:33.989Z,15.10
2019-05-07T08:17:04.118Z,14.90
2019-05-07T08:19:32.968Z,14.70
2019-05-07T08:22:02.780Z,14.70
2019-05-07T08:24:32.170Z,15.00
2019-05-07T08:27:02.293Z,15.10
2019-05-07T08:29:32.515Z,15.30
2019-05-07T08:32:06.990Z,15.10
2019-05-07T08:34:37.042Z,14.60
2019-05-07T08:37:05.466Z,14.90
2019-05-07T08:39:33.886Z,15.00
2019-05-07T08:42:02.312Z,14.80
2019-05-07T08:44:38.289Z,14.50
2019-05-07T08:47:14.562Z,14.30
2019-05-07T08:49:43.558Z,14.20
2019-05-07T08:52:12.197Z,13.40
2019-05-07T08:54:42.645Z,12.90
2019-05-07T08:57:12.155Z,12.80
2019-05-07T08:59:43.750Z,13.00
2019-05-07T09:02:12.661Z,13.20
2019-05-07T09:04:41.833Z,13.30
2019-05-07T09:07:12.786Z,13.60
2019-05-07T09:09:42.669Z,13.50
2019-05-07T09:12:12.384Z,14.10
2019-05-07T09:14:42.554Z,14.60
2019-05-07T09:17:12.725Z,14.60
2019-05-07T09:19:50.658Z,14.80
2019-05-07T09:22:12.723Z,14.80
2019-05-07T09:24:42.444Z,15.30
2019-05-07T09:27:22.392Z,15.80
2019-05-07T09:29:52.523Z,15.90
2019-05-07T09:32:34.866Z,16.20
2019-05-07T09:35:05.674Z,16.20
2019-05-07T09:37:34.098Z,15.90
2019-05-07T09:40:02.955Z,16.10
2019-05-07T09:42:33.314Z,16.00
2019-05-07T09:45:02.105Z,16.30
2019-05-07T09:47:32.488Z,16.80
2019-05-07T09:50:05.438Z,16.70
2019-05-07T09:52:32.100Z,16.90
2019-05-07T09:55:11.069Z,16.30
2019-05-07T09:57:32.505Z,15.90
2019-05-07T10:00:02.219Z,15.60
2019-05-07T10:02:32.079Z,15.40
2019-05-07T10:05:02.382Z,15.20
2019-05-07T10:07:32.424Z,15.00
2019-05-07T10:10:03.125Z,14.80
2019-05-07T10:12:49.360Z,14.80
2019-05-07T10:15:17.843Z,14.90
2019-05-07T10:17:47.957Z,14.80
2019-05-07T10:20:22.398Z,14.70
2019-05-07T10:22:48.699Z,14.60
2019-05-07T10:25:17.261Z,15.00
2019-05-07T10:27:45.806Z,15.50
2019-05-07T10:30:14.428Z,15.90
2019-05-07T10:32:42.911Z,16.40
2019-05-07T10:35:12.743Z,16.70
2019-05-07T10:37:42.259Z,16.10
2019-05-07T10:40:12.532Z,16.00
2019-05-07T10:42:43.079Z,16.30
2019-05-07T10:45:26.034Z,16.80
2019-05-07T10:47:58.804Z,16.70
2019-05-07T10:50:37.939Z,16.40
2019-05-07T10:52:59.005Z,16.40
2019-05-07T10:55:27.434Z,16.40
2019-05-07T10:57:55.878Z,16.50
2019-05-07T11:00:26.449Z,16.40
2019-05-07T11:02:55.186Z,16.10
2019-05-07T11:05:23.752Z,15.80
2019-05-07T11:07:53.918Z,15.50
2019-05-07T11:10:22.837Z,15.40
2019-05-07T11:12:52.091Z,15.30
2019-05-07T11:15:22.085Z,14.90
2019-05-07T11:17:58.349Z,14.80
2019-05-07T11:20:26.789Z,14.90
2019-05-07T11:22:55.217Z,14.70
2019-05-07T11:25:23.645Z,14.40
2019-05-07T11:27:52.495Z,14.20
2019-05-07T11:30:22.828Z,14.00
2019-05-07T11:32:52.248Z,13.80
2019-05-07T11:35:23.053Z,13.80
2019-05-07T11:37:52.037Z,13.80
2019-05-07T11:40:22.842Z,13.80
2019-05-07T11:42:53.406Z,13.80
2019-05-07T11:45:23.977Z,13.90
2019-05-07T11:47:52.403Z,14.20
2019-05-07T11:50:22.664Z,14.00
2019-05-07T11:52:58.732Z,13.90
2019-05-07T11:55:27.154Z,13.90
2019-05-07T11:57:55.582Z,14.00
2019-05-07T12:00:26.235Z,14.00
2019-05-07T12:02:54.671Z,13.80
2019-05-07T12:05:23.094Z,13.80
2019-05-07T12:07:51.551Z,14.10
2019-05-07T12:10:22.174Z,14.20
2019-05-07T12:12:52.008Z,14.30
2019-05-07T12:15:21.705Z,14.30
2019-05-07T12:17:52.160Z,14.50
2019-05-07T12:20:21.865Z,14.50
2019-05-07T12:22:52.200Z,14.50
2019-05-07T12:25:21.406Z,14.70
2019-05-07T12:27:51.778Z,14.50
2019-05-07T12:30:26.416Z,14.50
2019-05-07T12:32:59.502Z,14.20
2019-05-07T12:35:28.100Z,14.40
2019-05-07T12:37:56.509Z,14.40
2019-05-07T12:40:25.000Z,14.60
2019-05-07T12:42:53.494Z,14.70
2019-05-07T12:45:22.885Z,15.00
2019-05-07T12:47:52.926Z,15.20
2019-05-07T12:50:21.978Z,15.30
2019-05-07T12:52:57.889Z,15.30
2019-05-07T12:55:40.085Z,15.40
2019-05-07T12:58:08.610Z,15.40
2019-05-07T13:00:52.018Z,15.30
2019-05-07T13:03:28.534Z,15.40
2019-05-07T13:05:56.973Z,15.30
2019-05-07T13:08:25.466Z,15.00
2019-05-07T13:10:53.929Z,15.00
2019-05-07T13:13:22.352Z,15.20
2019-05-07T13:15:51.786Z,15.30
2019-05-07T13:18:22.488Z,15.30
2019-05-07T13:20:51.969Z,15.30
2019-05-07T13:23:22.520Z,15.40
2019-05-07T13:25:52.234Z,15.20
2019-05-07T13:28:20.855Z,15.30
2019-05-07T13:30:49.262Z,15.40
2019-05-07T13:33:18.517Z,15.40
2019-05-07T13:35:47.833Z,15.40
2019-05-07T13:38:21.187Z,15.30
2019-05-07T13:41:08.041Z,15.60
2019-05-07T13:43:38.254Z,15.80
2019-05-07T13:46:08.397Z,15.90
2019-05-07T13:48:38.848Z,16.00
2019-05-07T13:51:07.310Z,15.80
2019-05-07T13:53:35.720Z,15.70
2019-05-07T13:56:04.458Z,15.80
2019-05-07T13:58:33.090Z,16.10
2019-05-07T14:01:12.169Z,16.10
2019-05-07T14:03:40.807Z,15.90
2019-05-07T14:08:39.942Z,15.90
2019-05-07T14:11:08.532Z,15.90
2019-05-07T14:13:37.954Z,15.90
2019-05-07T14:16:07.552Z,15.90
2019-05-07T14:18:37.997Z,16.00
2019-05-07T14:21:07.266Z,15.90
2019-05-07T14:23:36.471Z,15.80
2019-05-07T14:26:05.168Z,15.70
2019-05-07T14:28:33.657Z,15.70
2019-05-07T14:31:02.957Z,15.60
2019-05-07T14:33:48.001Z,15.70
2019-05-07T14:36:26.975Z,15.70
2019-05-07T14:38:55.491Z,15.80
2019-05-07T14:41:25.754Z,15.70
2019-05-07T14:44:02.391Z,15.70
2019-05-07T14:46:43.633Z,15.70
2019-05-07T14:49:02.788Z,15.70
2019-05-07T14:51:32.610Z,15.80
2019-05-07T14:54:01.802Z,15.90
2019-05-07T14:56:32.274Z,15.80
2019-05-07T14:59:02.322Z,15.70
2019-05-07T15:01:31.194Z,15.80
2019-05-07T15:03:59.738Z,15.80
2019-05-07T15:06:28.397Z,15.80
2019-05-07T15:08:57.053Z,15.90
2019-05-07T15:11:25.612Z,15.70
2019-05-07T15:13:54.036Z,15.70
2019-05-07T15:16:22.792Z,15.50
2019-05-07T15:18:55.483Z,15.40
2019-05-07T15:21:24.380Z,15.30
2019-05-07T15:23:55.017Z,15.40
2019-05-07T15:26:24.076Z,15.50
2019-05-07T15:28:54.378Z,15.40
2019-05-07T15:31:36.412Z,15.40
2019-05-07T15:34:04.958Z,15.50
2019-05-07T15:36:33.399Z,15.60
2019-05-07T15:39:02.909Z,15.60
2019-05-07T15:41:32.099Z,15.20
2019-05-07T15:44:02.700Z,15.10
2019-05-07T15:46:32.232Z,15.00
2019-05-07T15:49:01.780Z,15.10
2019-05-07T15:51:30.375Z,15.10
2019-05-07T15:54:00.022Z,15.10
2019-05-07T15:56:28.478Z,15.10
2019-05-07T15:58:56.888Z,15.10
2019-05-07T16:01:25.354Z,15.00
2019-05-07T16:03:54.974Z,15.10
2019-05-07T16:06:23.670Z,15.00
2019-05-07T16:08:53.729Z,14.90
2019-05-07T16:11:23.281Z,15.00
2019-05-07T16:14:05.660Z,15.20
2019-05-07T16:16:35.919Z,15.30
2019-05-07T16:19:12.629Z,15.20
2019-05-07T16:21:42.558Z,15.20
2019-05-07T16:24:12.104Z,15.20
2019-05-07T16:26:41.841Z,15.10
2019-05-07T16:29:12.934Z,15.10
2019-05-07T16:31:40.684Z,15.10
2019-05-07T16:34:09.269Z,15.10
2019-05-07T16:36:37.798Z,15.00
2019-05-07T16:39:07.644Z,14.90
2019-05-07T16:41:36.193Z,15.00
2019-05-07T16:44:05.440Z,14.90
2019-05-07T16:46:33.892Z,14.90
2019-05-07T16:49:02.457Z,14.90
2019-05-07T16:51:33.034Z,14.80
2019-05-07T16:54:03.209Z,14.80
2019-05-07T16:56:33.342Z,15.00
2019-05-07T16:59:07.671Z,15.00
2019-05-07T17:01:36.268Z,15.10
2019-05-07T17:04:05.733Z,15.10
2019-05-07T17:06:34.229Z,15.10
2019-05-07T17:09:07.180Z,15.10
2019-05-07T17:11:35.732Z,15.10
2019-05-07T17:14:04.390Z,15.00
2019-05-07T17:16:32.913Z,15.00
2019-05-07T17:19:03.079Z,15.00
2019-05-07T17:21:32.477Z,14.90
2019-05-07T17:24:02.580Z,14.90
2019-05-07T17:26:31.177Z,14.90
2019-05-07T17:28:59.806Z,14.80
2019-05-07T17:31:28.246Z,14.70
2019-05-07T17:33:56.713Z,14.60
2019-05-07T17:36:25.142Z,14.60
2019-05-07T17:38:53.598Z,14.60
2019-05-07T17:41:26.768Z,14.50
2019-05-07T17:43:52.329Z,14.50
2019-05-07T17:46:21.756Z,14.50
2019-05-07T17:48:52.229Z,14.40
2019-05-07T17:51:22.297Z,14.20
2019-05-07T17:53:59.777Z,14.20
2019-05-07T17:56:22.331Z,14.20
2019-05-07T17:58:52.211Z,14.20
2019-05-07T18:01:22.499Z,14.10
2019-05-07T18:03:52.029Z,13.90
2019-05-07T18:06:20.670Z,13.70
2019-05-07T18:08:49.222Z,13.60
2019-05-07T18:11:21.138Z,13.40
2019-05-07T18:13:48.081Z,13.20
2019-05-07T18:16:22.264Z,13.00
2019-05-07T18:18:52.019Z,12.90
2019-05-07T18:21:22.006Z,12.80
2019-05-07T18:23:51.740Z,12.80
2019-05-07T18:26:28.051Z,12.80
2019-05-07T18:28:52.213Z,12.70
2019-05-07T18:31:22.504Z,12.60
2019-05-07T18:33:55.789Z,12.60
2019-05-07T18:36:24.285Z,12.50
2019-05-07T18:38:52.907Z,12.50
2019-05-07T18:41:22.314Z,12.60
2019-05-07T18:43:54.154Z,12.50
2019-05-07T18:46:22.153Z,12.50
2019-05-07T18:48:51.809Z,12.50
2019-05-07T18:51:20.783Z,12.30
2019-05-07T18:53:49.202Z,12.30
2019-05-07T18:56:17.842Z,12.20
2019-05-07T18:58:46.252Z,12.10
2019-05-07T19:01:15.933Z,12.00
2019-05-07T19:03:44.532Z,11.90
2019-05-07T19:06:13.623Z,11.80
2019-05-07T19:08:42.344Z,11.70
2019-05-07T19:11:12.256Z,11.70
2019-05-07T19:13:42.020Z,11.60
2019-05-07T19:16:12.432Z,11.50
2019-05-07T19:18:42.991Z,11.40
2019-05-07T19:21:11.180Z,11.40
2019-05-07T19:23:39.689Z,11.40
2019-05-07T19:26:08.264Z,11.40
2019-05-07T19:28:36.752Z,11.30
2019-05-07T19:31:05.226Z,11.10
2019-05-07T19:33:33.642Z,11.10
2019-05-07T19:36:02.119Z,11.00
2019-05-07T19:38:32.372Z,11.00
2019-05-07T19:41:02.206Z,10.90
2019-05-07T19:43:32.582Z,10.90
2019-05-07T19:46:02.852Z,10.90
2019-05-07T19:48:32.342Z,10.90
2019-05-07T19:51:02.872Z,11.00
2019-05-07T19:53:32.707Z,11.00
2019-05-07T19:56:15.418Z,10.90
2019-05-07T19:58:43.915Z,10.80
2019-05-07T20:01:14.061Z,10.90
2019-05-07T20:03:44.361Z,10.80
2019-05-07T20:06:13.083Z,10.80
2019-05-07T20:08:43.619Z,10.70
2019-05-07T20:11:25.470Z,10.70
2019-05-07T20:13:53.910Z,10.70
2019-05-07T20:16:23.204Z,10.60
2019-05-07T20:18:52.521Z,10.50
2019-05-07T20:21:22.889Z,10.50
2019-05-07T20:23:53.742Z,10.50
2019-05-07T20:26:23.073Z,10.30
2019-05-07T20:28:52.730Z,10.30
2019-05-07T20:31:22.533Z,10.20
2019-05-07T20:33:53.043Z,10.30
2019-05-07T20:36:22.590Z,10.30
2019-05-07T20:38:52.191Z,10.20
2019-05-07T20:41:23.024Z,10.30
2019-05-07T20:43:52.344Z,10.30
2019-05-07T20:46:20.982Z,10.40
2019-05-07T20:48:49.415Z,10.50
2019-05-07T20:51:17.841Z,10.40
2019-05-07T20:54:02.885Z,10.30
2019-05-07T20:56:35.550Z,10.20
2019-05-07T20:59:04.393Z,10.20
2019-05-07T21:01:33.168Z,10.20
2019-05-07T21:04:02.157Z,10.30
2019-05-07T21:06:32.336Z,10.30
2019-05-07T21:09:01.275Z,10.40
2019-05-07T21:11:32.019Z,10.40
2019-05-07T21:13:59.890Z,10.30
2019-05-07T21:16:28.433Z,10.30
2019-05-07T21:18:56.867Z,10.30
2019-05-07T21:21:25.289Z,10.30
2019-05-07T21:23:53.741Z,10.30
2019-05-07T21:26:22.615Z,10.10
2019-05-07T21:28:52.809Z,10.10
2019-05-07T21:31:22.823Z,10.00
2019-05-07T21:33:52.322Z,10.00
2019-05-07T21:36:22.871Z,9.90
2019-05-07T21:38:51.870Z,9.80
2019-05-07T21:41:22.752Z,9.80
2019-05-07T21:43:52.640Z,9.90
2019-05-07T21:46:22.188Z,9.90
2019-05-07T21:48:51.816Z,9.90
2019-05-07T21:51:22.825Z,9.80
2019-05-07T21:53:53.798Z,9.70
2019-05-07T21:56:26.906Z,9.60
2019-05-07T21:58:57.334Z,9.60
2019-05-07T22:01:27.482Z,9.60
2019-05-07T22:03:57.883Z,9.60
2019-05-07T22:06:26.445Z,9.50
2019-05-07T22:08:55.001Z,9.40
2019-05-07T22:11:23.423Z,9.40
2019-05-07T22:13:54.442Z,9.40
2019-05-07T22:16:22.334Z,9.40
2019-05-07T22:18:52.277Z,9.30
2019-05-07T22:21:21.630Z,9.30
2019-05-07T22:23:52.023Z,9.20
2019-05-07T22:26:23.856Z,9.20
2019-05-07T22:28:53.817Z,9.10
2019-05-07T22:31:25.337Z,9.10
2019-05-07T22:33:59.345Z,9.10
2019-05-07T22:36:27.948Z,9.10
2019-05-07T22:38:56.353Z,9.10
2019-05-07T22:41:24.846Z,9.20
2019-05-07T22:43:53.252Z,9.20
2019-05-07T22:46:22.339Z,9.10
2019-05-07T22:48:50.966Z,9.00
2019-05-07T22:51:19.401Z,9.00
2019-05-07T22:53:47.792Z,9.00
2019-05-07T22:56:16.364Z,8.90
2019-05-07T22:58:49.412Z,8.90
2019-05-07T23:01:19.109Z,8.90
2019-05-07T23:03:47.518Z,8.90
2019-05-07T23:06:15.931Z,8.80
2019-05-07T23:08:44.654Z,8.80
2019-05-07T23:11:13.078Z,8.70
2019-05-07T23:13:42.739Z,8.70
2019-05-07T23:16:12.576Z,8.60
2019-05-07T23:18:42.869Z,8.50
2019-05-07T23:21:11.317Z,8.50
2019-05-07T23:23:42.006Z,8.40
2019-05-07T23:26:12.211Z,8.40
2019-05-07T23:28:41.889Z,8.40
2019-05-07T23:31:12.118Z,8.20
2019-05-07T23:33:40.293Z,8.10
2019-05-07T23:36:08.697Z,8.10
2019-05-07T23:38:37.122Z,8.00
2019-05-07T23:41:13.165Z,8.00
2019-05-07T23:43:42.373Z,8.10
2019-05-07T23:46:12.826Z,8.20
2019-05-07T23:48:42.725Z,8.30
2019-05-07T23:51:12.620Z,8.30
2019-05-07T23:53:44.143Z,8.30
2019-05-07T23:56:13.084Z,8.30
2019-05-07T23:58:42.035Z,8.40
